sensor_id;sensor_type;location;lat;lon;timestamp;pressure;altitude;pressure_sealevel;temperature;humidity
10097;BME280;5087;42.662;23.466;2023-05-22T00:01:08;95140.19;;;12.85;100.00
10097;BME280;5087;42.662;23.466;2023-05-22T00:03:36;95138.41;;;12.55;100.00
10097;BME280;5087;42.662;23.466;2023-05-22T00:06:06;95127.25;;;12.48;100.00
10097;BME280;5087;42.662;23.466;2023-05-22T00:08:35;95138.84;;;12.45;100.00
10097;BME280;5087;42.662;23.466;2023-05-22T00:11:03;95143.34;;;12.41;100.00
10097;BME280;5087;42.662;23.466;2023-05-22T00:13:30;95135.13;;;12.28;100.00
10097;BME280;5087;42.662;23.466;2023-05-22T00:15:57;95127.25;;;12.48;100.00
10097;BME280;5087;42.662;23.466;2023-05-22T00:18:24;95140.22;;;12.51;100.00
10097;BME280;5087;42.662;23.466;2023-05-22T00:20:52;95135.03;;;12.58;100.00
10097;BME280;5087;42.662;23.466;2023-05-22T00:23:21;95144.09;;;12.62;100.00
10097;BME280;5087;42.662;23.466;2023-05-22T00:25:48;95103.69;;;12.52;100.00
10097;BME280;5087;42.662;23.466;2023-05-22T00:28:16;95134.38;;;12.74;100.00
10097;BME280;5087;42.662;23.466;2023-05-22T00:30:44;95137.91;;;12.41;100.00
10097;BME280;5087;42.662;23.466;2023-05-22T00:33:11;95126.59;;;12.51;100.00
10097;BME280;5087;42.662;23.466;2023-05-22T00:35:39;95130.06;;;12.39;100.00
10097;BME280;5087;42.662;23.466;2023-05-22T00:38:07;95131.13;;;12.47;100.00
10097;BME280;5087;42.662;23.466;2023-05-22T00:40:36;95123.63;;;12.44;100.00
10097;BME280;5087;42.662;23.466;2023-05-22T00:43:03;95137.34;;;11.84;100.00
10097;BME280;5087;42.662;23.466;2023-05-22T00:45:33;95138.41;;;11.40;100.00
10097;BME280;5087;42.662;23.466;2023-05-22T00:48:03;95153.66;;;11.63;100.00
10097;BME280;5087;42.662;23.466;2023-05-22T00:50:30;95136.25;;;11.55;100.00
10097;BME280;5087;42.662;23.466;2023-05-22T00:52:59;95131.59;;;11.85;100.00
10097;BME280;5087;42.662;23.466;2023-05-22T00:55:27;95123.44;;;11.85;100.00
10097;BME280;5087;42.662;23.466;2023-05-22T00:57:56;95148.59;;;12.03;100.00
10097;BME280;5087;42.662;23.466;2023-05-22T01:00:23;95138.81;;;11.51;100.00
10097;BME280;5087;42.662;23.466;2023-05-22T01:02:51;95149.31;;;11.32;100.00
10097;BME280;5087;42.662;23.466;2023-05-22T01:05:18;95151.78;;;11.46;100.00
10097;BME280;5087;42.662;23.466;2023-05-22T01:07:45;95154.91;;;10.88;100.00
10097;BME280;5087;42.662;23.466;2023-05-22T01:10:13;95139.81;;;11.08;100.00
10097;BME280;5087;42.662;23.466;2023-05-22T01:12:47;95137.63;;;11.31;100.00
10097;BME280;5087;42.662;23.466;2023-05-22T01:15:31;95107.81;;;11.22;100.00
10097;BME280;5087;42.662;23.466;2023-05-22T01:18:10;95149.13;;;11.37;100.00
10097;BME280;5087;42.662;23.466;2023-05-22T01:20:50;95142.91;;;11.36;100.00
10097;BME280;5087;42.662;23.466;2023-05-22T01:23:58;95128.38;;;11.32;100.00
10097;BME280;5087;42.662;23.466;2023-05-22T01:26:56;95140.66;;;11.38;100.00
10097;BME280;5087;42.662;23.466;2023-05-22T01:29:45;95135.03;;;11.44;100.00
10097;BME280;5087;42.662;23.466;2023-05-22T01:32:20;95133.16;;;11.35;100.00
10097;BME280;5087;42.662;23.466;2023-05-22T01:34:52;95129.34;;;11.28;100.00
10097;BME280;5087;42.662;23.466;2023-05-22T01:37:20;95126.31;;;11.29;100.00
10097;BME280;5087;42.662;23.466;2023-05-22T01:39:54;95127.44;;;11.28;100.00
10097;BME280;5087;42.662;23.466;2023-05-22T01:42:22;95125.56;;;11.20;100.00
10097;BME280;5087;42.662;23.466;2023-05-22T01:44:59;95126.34;;;11.20;100.00
10097;BME280;5087;42.662;23.466;2023-05-22T01:47:30;95139.97;;;11.12;100.00
10097;BME280;5087;42.662;23.466;2023-05-22T01:50:00;95133.13;;;11.05;100.00
10097;BME280;5087;42.662;23.466;2023-05-22T01:52:36;95128.34;;;11.02;100.00
10097;BME280;5087;42.662;23.466;2023-05-22T01:55:10;95115.63;;;10.85;100.00
10097;BME280;5087;42.662;23.466;2023-05-22T01:57:45;95127.13;;;10.82;100.00
10097;BME280;5087;42.662;23.466;2023-05-22T02:00:15;95136.53;;;10.85;100.00
10097;BME280;5087;42.662;23.466;2023-05-22T02:02:48;95140.59;;;10.52;100.00
10097;BME280;5087;42.662;23.466;2023-05-22T02:05:18;95135.03;;;10.49;100.00
10097;BME280;5087;42.662;23.466;2023-05-22T02:07:47;95120.28;;;10.76;100.00
10097;BME280;5087;42.662;23.466;2023-05-22T02:10:17;95119.59;;;10.88;100.00
10097;BME280;5087;42.662;23.466;2023-05-22T02:12:45;95129.88;;;10.73;100.00
10097;BME280;5087;42.662;23.466;2023-05-22T02:15:12;95129.16;;;10.94;100.00
10097;BME280;5087;42.662;23.466;2023-05-22T02:17:40;95124.88;;;10.84;100.00
10097;BME280;5087;42.662;23.466;2023-05-22T02:20:13;95112.31;;;10.71;100.00
10097;BME280;5087;42.662;23.466;2023-05-22T02:22:43;95124.56;;;10.86;100.00
10097;BME280;5087;42.662;23.466;2023-05-22T02:25:12;95133.97;;;10.97;100.00
10097;BME280;5087;42.662;23.466;2023-05-22T02:27:45;95132.69;;;10.86;100.00
10097;BME280;5087;42.662;23.466;2023-05-22T02:30:14;95135.91;;;10.88;100.00
10097;BME280;5087;42.662;23.466;2023-05-22T02:32:43;95129.03;;;10.90;100.00
10097;BME280;5087;42.662;23.466;2023-05-22T02:35:12;95118.03;;;10.78;100.00
10097;BME280;5087;42.662;23.466;2023-05-22T02:37:39;95135.78;;;10.67;100.00
10097;BME280;5087;42.662;23.466;2023-05-22T02:40:08;95124.84;;;10.45;100.00
10097;BME280;5087;42.662;23.466;2023-05-22T02:42:35;95131.81;;;10.47;100.00
10097;BME280;5087;42.662;23.466;2023-05-22T02:45:04;95128.97;;;10.52;100.00
10097;BME280;5087;42.662;23.466;2023-05-22T02:47:31;95128.97;;;10.52;100.00
10097;BME280;5087;42.662;23.466;2023-05-22T02:49:58;95136.00;;;10.53;100.00
10097;BME280;5087;42.662;23.466;2023-05-22T02:52:31;95135.00;;;10.66;100.00
10097;BME280;5087;42.662;23.466;2023-05-22T02:54:59;95137.84;;;10.87;100.00
10097;BME280;5087;42.662;23.466;2023-05-22T02:57:34;95133.00;;;10.93;100.00
10097;BME280;5087;42.662;23.466;2023-05-22T03:00:02;95121.09;;;10.68;100.00
10097;BME280;5087;42.662;23.466;2023-05-22T03:02:36;95121.75;;;10.65;100.00
10097;BME280;5087;42.662;23.466;2023-05-22T03:05:04;95118.56;;;10.54;100.00
10097;BME280;5087;42.662;23.466;2023-05-22T03:07:33;95125.13;;;10.61;100.00
10097;BME280;5087;42.662;23.466;2023-05-22T03:10:02;95123.84;;;10.50;100.00
10097;BME280;5087;42.662;23.466;2023-05-22T03:12:29;95111.91;;;10.42;100.00
10097;BME280;5087;42.662;23.466;2023-05-22T03:14:57;95126.06;;;10.57;100.00
10097;BME280;5087;42.662;23.466;2023-05-22T03:17:24;95122.72;;;10.51;100.00
10097;BME280;5087;42.662;23.466;2023-05-22T03:19:51;95137.91;;;10.43;100.00
10097;BME280;5087;42.662;23.466;2023-05-22T03:22:19;95111.34;;;10.67;100.00
10097;BME280;5087;42.662;23.466;2023-05-22T03:24:47;95133.34;;;10.91;100.00
10097;BME280;5087;42.662;23.466;2023-05-22T03:27:15;95125.97;;;10.92;100.00
10097;BME280;5087;42.662;23.466;2023-05-22T03:29:45;95125.34;;;10.95;100.00
10097;BME280;5087;42.662;23.466;2023-05-22T03:32:13;95134.88;;;11.01;100.00
10097;BME280;5087;42.662;23.466;2023-05-22T03:34:41;95130.66;;;10.74;100.00
10097;BME280;5087;42.662;23.466;2023-05-22T03:37:10;95135.63;;;10.63;100.00
10097;BME280;5087;42.662;23.466;2023-05-22T03:39:37;95126.56;;;10.33;100.00
10097;BME280;5087;42.662;23.466;2023-05-22T03:42:17;95122.88;;;10.55;100.00
10097;BME280;5087;42.662;23.466;2023-05-22T03:44:45;95133.66;;;10.90;100.00
10097;BME280;5087;42.662;23.466;2023-05-22T03:47:14;95122.94;;;10.93;100.00
10097;BME280;5087;42.662;23.466;2023-05-22T03:49:41;95127.38;;;11.07;100.00
10097;BME280;5087;42.662;23.466;2023-05-22T03:52:08;95136.38;;;10.81;100.00
10097;BME280;5087;42.662;23.466;2023-05-22T03:54:36;95136.78;;;11.09;100.00
10097;BME280;5087;42.662;23.466;2023-05-22T03:57:04;95140.75;;;11.21;100.00
10097;BME280;5087;42.662;23.466;2023-05-22T03:59:33;95107.72;;;11.10;100.00
10097;BME280;5087;42.662;23.466;2023-05-22T04:02:02;95132.50;;;11.38;100.00
10097;BME280;5087;42.662;23.466;2023-05-22T04:04:31;95133.50;;;11.34;100.00
10097;BME280;5087;42.662;23.466;2023-05-22T04:07:03;95138.75;;;11.39;100.00
10097;BME280;5087;42.662;23.466;2023-05-22T04:09:34;95138.38;;;11.11;100.00
10097;BME280;5087;42.662;23.466;2023-05-22T04:12:01;95143.88;;;10.93;100.00
10097;BME280;5087;42.662;23.466;2023-05-22T04:14:29;95134.34;;;11.26;100.00
10097;BME280;5087;42.662;23.466;2023-05-22T04:16:58;95139.25;;;11.62;100.00
10097;BME280;5087;42.662;23.466;2023-05-22T04:19:29;95127.66;;;11.95;100.00
10097;BME280;5087;42.662;23.466;2023-05-22T04:21:57;95137.63;;;11.91;100.00
10097;BME280;5087;42.662;23.466;2023-05-22T04:24:24;95142.69;;;12.23;100.00
10097;BME280;5087;42.662;23.466;2023-05-22T04:26:52;95136.63;;;11.96;100.00
10097;BME280;5087;42.662;23.466;2023-05-22T04:29:19;95149.75;;;12.57;100.00
10097;BME280;5087;42.662;23.466;2023-05-22T04:31:47;95141.19;;;12.68;100.00
10097;BME280;5087;42.662;23.466;2023-05-22T04:34:16;95141.56;;;12.78;100.00
10097;BME280;5087;42.662;23.466;2023-05-22T04:36:43;95124.91;;;13.17;100.00
10097;BME280;5087;42.662;23.466;2023-05-22T04:39:11;95146.63;;;13.88;100.00
10097;BME280;5087;42.662;23.466;2023-05-22T04:41:39;95122.59;;;13.40;100.00
10097;BME280;5087;42.662;23.466;2023-05-22T04:44:06;95157.13;;;13.86;100.00
10097;BME280;5087;42.662;23.466;2023-05-22T04:46:34;95131.28;;;13.96;100.00
10097;BME280;5087;42.662;23.466;2023-05-22T04:49:05;95147.81;;;14.15;100.00
10097;BME280;5087;42.662;23.466;2023-05-22T04:51:38;95140.34;;;14.81;100.00
10097;BME280;5087;42.662;23.466;2023-05-22T04:54:09;95139.78;;;14.76;100.00
10097;BME280;5087;42.662;23.466;2023-05-22T04:56:41;95112.69;;;15.15;100.00
10097;BME280;5087;42.662;23.466;2023-05-22T04:59:09;95140.06;;;14.86;100.00
10097;BME280;5087;42.662;23.466;2023-05-22T05:01:42;95110.31;;;15.13;100.00
10097;BME280;5087;42.662;23.466;2023-05-22T05:04:11;95139.44;;;14.77;100.00
10097;BME280;5087;42.662;23.466;2023-05-22T05:06:41;95137.75;;;15.17;100.00
10097;BME280;5087;42.662;23.466;2023-05-22T05:09:10;95135.50;;;15.55;100.00
10097;BME280;5087;42.662;23.466;2023-05-22T05:11:51;95146.72;;;15.49;100.00
10097;BME280;5087;42.662;23.466;2023-05-22T05:14:20;95147.69;;;15.73;100.00
10097;BME280;5087;42.662;23.466;2023-05-22T05:16:49;95137.09;;;15.88;100.00
10097;BME280;5087;42.662;23.466;2023-05-22T05:19:17;95122.97;;;15.86;100.00
10097;BME280;5087;42.662;23.466;2023-05-22T05:21:48;95140.31;;;16.68;100.00
10097;BME280;5087;42.662;23.466;2023-05-22T05:24:15;95130.09;;;16.26;100.00
10097;BME280;5087;42.662;23.466;2023-05-22T05:26:44;95137.84;;;16.04;100.00
10097;BME280;5087;42.662;23.466;2023-05-22T05:29:11;95124.59;;;16.45;100.00
10097;BME280;5087;42.662;23.466;2023-05-22T05:31:48;95127.47;;;16.53;100.00
10097;BME280;5087;42.662;23.466;2023-05-22T05:34:37;95104.91;;;16.59;100.00
10097;BME280;5087;42.662;23.466;2023-05-22T05:37:17;95125.59;;;16.76;100.00
10097;BME280;5087;42.662;23.466;2023-05-22T05:39:45;95103.66;;;16.96;100.00
10097;BME280;5087;42.662;23.466;2023-05-22T05:42:12;95125.22;;;16.98;100.00
10097;BME280;5087;42.662;23.466;2023-05-22T05:44:39;95127.19;;;17.20;100.00
10097;BME280;5087;42.662;23.466;2023-05-22T05:47:07;95128.47;;;17.77;100.00
10097;BME280;5087;42.662;23.466;2023-05-22T05:49:34;95127.75;;;18.07;100.00
10097;BME280;5087;42.662;23.466;2023-05-22T05:52:03;95117.44;;;17.96;100.00
10097;BME280;5087;42.662;23.466;2023-05-22T05:54:33;95120.09;;;17.93;100.00
10097;BME280;5087;42.662;23.466;2023-05-22T05:57:08;95133.47;;;18.25;100.00
10097;BME280;5087;42.662;23.466;2023-05-22T05:59:35;95121.41;;;18.63;100.00
10097;BME280;5087;42.662;23.466;2023-05-22T06:02:24;95132.69;;;18.24;100.00
10097;BME280;5087;42.662;23.466;2023-05-22T06:04:55;95133.25;;;18.07;100.00
10097;BME280;5087;42.662;23.466;2023-05-22T06:07:24;95121.72;;;17.97;100.00
10097;BME280;5087;42.662;23.466;2023-05-22T06:10:05;95128.22;;;18.77;100.00
10097;BME280;5087;42.662;23.466;2023-05-22T06:12:41;95130.63;;;19.16;100.00
10097;BME280;5087;42.662;23.466;2023-05-22T06:15:09;95132.53;;;19.53;100.00
10097;BME280;5087;42.662;23.466;2023-05-22T06:17:38;95120.50;;;19.76;100.00
10097;BME280;5087;42.662;23.466;2023-05-22T06:20:11;95113.91;;;19.84;100.00
10097;BME280;5087;42.662;23.466;2023-05-22T06:22:38;95124.06;;;19.76;100.00
10097;BME280;5087;42.662;23.466;2023-05-22T06:25:09;95107.13;;;18.50;100.00
10097;BME280;5087;42.662;23.466;2023-05-22T06:27:37;95129.13;;;18.85;100.00
10097;BME280;5087;42.662;23.466;2023-05-22T06:30:06;95127.84;;;20.09;100.00
10097;BME280;5087;42.662;23.466;2023-05-22T06:32:37;95132.25;;;19.21;100.00
10097;BME280;5087;42.662;23.466;2023-05-22T06:35:06;95131.44;;;18.82;100.00
10097;BME280;5087;42.662;23.466;2023-05-22T06:37:34;95124.69;;;18.12;100.00
10097;BME280;5087;42.662;23.466;2023-05-22T06:40:15;95132.97;;;19.14;100.00
10097;BME280;5087;42.662;23.466;2023-05-22T06:42:48;95124.50;;;18.92;100.00
10097;BME280;5087;42.662;23.466;2023-05-22T06:45:35;95117.31;;;18.84;100.00
10097;BME280;5087;42.662;23.466;2023-05-22T06:48:39;95122.00;;;19.63;100.00
10097;BME280;5087;42.662;23.466;2023-05-22T06:51:27;95113.06;;;19.80;100.00
10097;BME280;5087;42.662;23.466;2023-05-22T06:54:02;95126.59;;;19.51;99.41
10097;BME280;5087;42.662;23.466;2023-05-22T06:56:34;95108.78;;;20.53;98.99
10097;BME280;5087;42.662;23.466;2023-05-22T06:59:14;95117.50;;;20.73;95.94
10097;BME280;5087;42.662;23.466;2023-05-22T07:02:04;95116.06;;;21.23;98.90
10097;BME280;5087;42.662;23.466;2023-05-22T07:04:58;95111.63;;;20.78;97.55
10097;BME280;5087;42.662;23.466;2023-05-22T07:07:44;95125.56;;;22.01;88.78
10097;BME280;5087;42.662;23.466;2023-05-22T07:10:11;95101.88;;;21.42;95.04
10097;BME280;5087;42.662;23.466;2023-05-22T07:12:40;95114.50;;;21.40;84.56
10097;BME280;5087;42.662;23.466;2023-05-22T07:15:08;95126.94;;;19.42;100.00
10097;BME280;5087;42.662;23.466;2023-05-22T07:17:39;95122.38;;;18.82;100.00
10097;BME280;5087;42.662;23.466;2023-05-22T07:20:11;95122.50;;;19.30;100.00
10097;BME280;5087;42.662;23.466;2023-05-22T07:22:45;95112.03;;;19.96;100.00
10097;BME280;5087;42.662;23.466;2023-05-22T07:25:14;95127.16;;;20.31;100.00
10097;BME280;5087;42.662;23.466;2023-05-22T07:27:43;95117.59;;;20.95;100.00
10097;BME280;5087;42.662;23.466;2023-05-22T07:30:12;95119.19;;;20.11;100.00
10097;BME280;5087;42.662;23.466;2023-05-22T07:32:40;95120.78;;;19.15;100.00
10097;BME280;5087;42.662;23.466;2023-05-22T07:35:08;95110.03;;;18.65;100.00
10097;BME280;5087;42.662;23.466;2023-05-22T07:37:36;95131.31;;;18.38;100.00
10097;BME280;5087;42.662;23.466;2023-05-22T07:40:08;95125.13;;;18.82;100.00
10097;BME280;5087;42.662;23.466;2023-05-22T07:42:36;95117.34;;;18.50;100.00
10097;BME280;5087;42.662;23.466;2023-05-22T07:45:08;95129.88;;;18.51;100.00
10097;BME280;5087;42.662;23.466;2023-05-22T07:47:35;95117.56;;;18.72;100.00
10097;BME280;5087;42.662;23.466;2023-05-22T07:50:07;95085.72;;;19.53;100.00
10097;BME280;5087;42.662;23.466;2023-05-22T07:52:37;95099.25;;;19.73;100.00
10097;BME280;5087;42.662;23.466;2023-05-22T07:55:06;95092.28;;;20.71;100.00
10097;BME280;5087;42.662;23.466;2023-05-22T07:57:37;95095.09;;;18.96;98.96
10097;BME280;5087;42.662;23.466;2023-05-22T08:00:16;95101.84;;;19.55;100.00
10097;BME280;5087;42.662;23.466;2023-05-22T08:02:43;95111.66;;;19.52;100.00
10097;BME280;5087;42.662;23.466;2023-05-22T08:05:11;95100.84;;;19.25;100.00
10097;BME280;5087;42.662;23.466;2023-05-22T08:07:38;95107.50;;;19.69;97.84
10097;BME280;5087;42.662;23.466;2023-05-22T08:10:12;95104.91;;;20.72;95.10
10097;BME280;5087;42.662;23.466;2023-05-22T08:12:44;95101.06;;;19.54;91.91
10097;BME280;5087;42.662;23.466;2023-05-22T08:15:19;95114.38;;;19.93;97.95
10097;BME280;5087;42.662;23.466;2023-05-22T08:17:46;95117.56;;;19.99;97.89
10097;BME280;5087;42.662;23.466;2023-05-22T08:20:14;95089.59;;;20.93;95.31
10097;BME280;5087;42.662;23.466;2023-05-22T08:22:47;95106.78;;;20.50;90.03
10097;BME280;5087;42.662;23.466;2023-05-22T08:25:14;95091.91;;;20.73;84.36
10097;BME280;5087;42.662;23.466;2023-05-22T08:27:42;95106.06;;;19.86;83.14
10097;BME280;5087;42.662;23.466;2023-05-22T08:30:13;95063.47;;;19.73;83.47
10097;BME280;5087;42.662;23.466;2023-05-22T08:32:42;95091.13;;;19.87;79.97
10097;BME280;5087;42.662;23.466;2023-05-22T08:35:12;95102.06;;;19.80;79.10
10097;BME280;5087;42.662;23.466;2023-05-22T08:37:41;95094.13;;;19.75;78.33
10097;BME280;5087;42.662;23.466;2023-05-22T08:40:16;95098.72;;;21.22;77.32
10097;BME280;5087;42.662;23.466;2023-05-22T08:42:46;95097.13;;;21.03;77.66
10097;BME280;5087;42.662;23.466;2023-05-22T08:45:16;95076.94;;;22.14;75.28
10097;BME280;5087;42.662;23.466;2023-05-22T08:47:54;95082.75;;;20.58;67.63
10097;BME280;5087;42.662;23.466;2023-05-22T08:50:26;95099.50;;;21.98;67.18
10097;BME280;5087;42.662;23.466;2023-05-22T08:52:55;95084.03;;;22.23;63.16
10097;BME280;5087;42.662;23.466;2023-05-22T08:55:23;95092.22;;;22.59;65.63
10097;BME280;5087;42.662;23.466;2023-05-22T08:57:52;95080.28;;;22.76;67.87
10097;BME280;5087;42.662;23.466;2023-05-22T09:00:28;95088.84;;;21.86;62.62
10097;BME280;5087;42.662;23.466;2023-05-22T09:02:58;95079.63;;;22.36;64.38
10097;BME280;5087;42.662;23.466;2023-05-22T09:05:26;95087.53;;;22.49;62.41
10097;BME280;5087;42.662;23.466;2023-05-22T09:07:53;95084.47;;;22.03;60.58
10097;BME280;5087;42.662;23.466;2023-05-22T09:10:21;95079.72;;;22.14;64.73
10097;BME280;5087;42.662;23.466;2023-05-22T09:13:04;95066.75;;;21.50;65.58
10097;BME280;5087;42.662;23.466;2023-05-22T09:15:33;95069.53;;;21.75;64.35
10097;BME280;5087;42.662;23.466;2023-05-22T09:18:05;95063.19;;;21.89;66.12
10097;BME280;5087;42.662;23.466;2023-05-22T09:20:37;95072.63;;;22.06;62.75
10097;BME280;5087;42.662;23.466;2023-05-22T09:23:12;95063.22;;;21.42;60.57
10097;BME280;5087;42.662;23.466;2023-05-22T09:25:43;95077.34;;;22.13;62.72
10097;BME280;5087;42.662;23.466;2023-05-22T09:28:11;95086.53;;;21.59;59.77
10097;BME280;5087;42.662;23.466;2023-05-22T09:30:38;95064.78;;;21.29;60.89
10097;BME280;5087;42.662;23.466;2023-05-22T09:33:12;95080.13;;;20.86;59.36
10097;BME280;5087;42.662;23.466;2023-05-22T09:35:41;95067.13;;;20.91;61.98
10097;BME280;5087;42.662;23.466;2023-05-22T09:38:14;95077.38;;;20.94;59.68
10097;BME280;5087;42.662;23.466;2023-05-22T09:40:42;95082.91;;;21.05;62.10
10097;BME280;5087;42.662;23.466;2023-05-22T09:43:11;95082.50;;;20.99;61.42
10097;BME280;5087;42.662;23.466;2023-05-22T09:45:43;95089.00;;;20.40;61.42
10097;BME280;5087;42.662;23.466;2023-05-22T09:48:16;95065.88;;;20.66;64.13
10097;BME280;5087;42.662;23.466;2023-05-22T09:50:46;95052.56;;;21.30;62.52
10097;BME280;5087;42.662;23.466;2023-05-22T09:53:15;95078.19;;;21.05;58.15
10097;BME280;5087;42.662;23.466;2023-05-22T09:55:46;95085.22;;;20.81;59.75
10097;BME280;5087;42.662;23.466;2023-05-22T09:58:17;95073.78;;;20.75;58.87
10097;BME280;5087;42.662;23.466;2023-05-22T10:00:45;95092.28;;;20.71;59.00
10097;BME280;5087;42.662;23.466;2023-05-22T10:03:16;95081.34;;;21.14;58.37
10097;BME280;5087;42.662;23.466;2023-05-22T10:05:51;95082.72;;;20.43;59.50
10097;BME280;5087;42.662;23.466;2023-05-22T10:08:35;95083.16;;;20.52;62.80
10097;BME280;5087;42.662;23.466;2023-05-22T10:11:05;95073.41;;;19.88;79.10
10097;BME280;5087;42.662;23.466;2023-05-22T10:13:33;95086.44;;;19.46;91.58
10097;BME280;5087;42.662;23.466;2023-05-22T10:16:06;95093.47;;;18.58;100.00
10097;BME280;5087;42.662;23.466;2023-05-22T10:18:36;95099.56;;;17.09;100.00
10097;BME280;5087;42.662;23.466;2023-05-22T10:21:05;95108.88;;;16.23;100.00
10097;BME280;5087;42.662;23.466;2023-05-22T10:23:32;95041.28;;;16.07;100.00
10097;BME280;5087;42.662;23.466;2023-05-22T10:26:00;95103.97;;;16.52;100.00
10097;BME280;5087;42.662;23.466;2023-05-22T10:28:47;95110.44;;;17.02;100.00
10097;BME280;5087;42.662;23.466;2023-05-22T10:31:31;95108.94;;;17.55;100.00
10097;BME280;5087;42.662;23.466;2023-05-22T10:34:27;95115.50;;;18.00;100.00
10097;BME280;5087;42.662;23.466;2023-05-22T10:37:07;95102.22;;;18.37;100.00
10097;BME280;5087;42.662;23.466;2023-05-22T10:39:42;95100.16;;;18.60;100.00
10097;BME280;5087;42.662;23.466;2023-05-22T10:42:14;95115.56;;;19.03;100.00
10097;BME280;5087;42.662;23.466;2023-05-22T10:44:41;95106.19;;;19.07;100.00
10097;BME280;5087;42.662;23.466;2023-05-22T10:47:09;95093.16;;;19.01;100.00
10097;BME280;5087;42.662;23.466;2023-05-22T10:49:42;95078.69;;;19.59;100.00
10097;BME280;5087;42.662;23.466;2023-05-22T10:52:10;95050.06;;;19.75;100.00
10097;BME280;5087;42.662;23.466;2023-05-22T10:54:42;95045.00;;;19.81;100.00
10097;BME280;5087;42.662;23.466;2023-05-22T10:57:12;95087.13;;;20.66;100.00
10097;BME280;5087;42.662;23.466;2023-05-22T10:59:41;95062.09;;;20.08;100.00
10097;BME280;5087;42.662;23.466;2023-05-22T11:02:18;95080.44;;;20.67;100.00
10097;BME280;5087;42.662;23.466;2023-05-22T11:04:48;95074.44;;;20.43;100.00
10097;BME280;5087;42.662;23.466;2023-05-22T11:07:19;95074.25;;;18.95;100.00
10097;BME280;5087;42.662;23.466;2023-05-22T11:09:46;95104.06;;;18.93;100.00
10097;BME280;5087;42.662;23.466;2023-05-22T11:12:18;95132.69;;;18.24;100.00
10097;BME280;5087;42.662;23.466;2023-05-22T11:14:50;95135.59;;;17.31;100.00
10097;BME280;5087;42.662;23.466;2023-05-22T11:17:23;95118.03;;;16.50;100.00
10097;BME280;5087;42.662;23.466;2023-05-22T11:20:04;95154.97;;;16.01;100.00
10097;BME280;5087;42.662;23.466;2023-05-22T11:22:34;95173.38;;;15.69;100.00
10097;BME280;5087;42.662;23.466;2023-05-22T11:25:14;95168.63;;;14.89;100.00
10097;BME280;5087;42.662;23.466;2023-05-22T11:27:46;95151.50;;;13.95;100.00
10097;BME280;5087;42.662;23.466;2023-05-22T11:30:14;95131.75;;;13.85;100.00
10097;BME280;5087;42.662;23.466;2023-05-22T11:32:43;95185.78;;;14.33;100.00
10097;BME280;5087;42.662;23.466;2023-05-22T11:35:17;95162.59;;;14.27;100.00
10097;BME280;5087;42.662;23.466;2023-05-22T11:37:47;95139.31;;;14.04;100.00
10097;BME280;5087;42.662;23.466;2023-05-22T11:40:15;95130.47;;;13.95;100.00
10097;BME280;5087;42.662;23.466;2023-05-22T11:42:44;95152.41;;;13.99;100.00
10097;BME280;5087;42.662;23.466;2023-05-22T11:45:14;95173.69;;;13.93;100.00
10097;BME280;5087;42.662;23.466;2023-05-22T11:47:43;95168.56;;;13.91;100.00
10097;BME280;5087;42.662;23.466;2023-05-22T11:50:11;95166.41;;;13.97;100.00
10097;BME280;5087;42.662;23.466;2023-05-22T11:53:06;95176.97;;;13.99;100.00
10097;BME280;5087;42.662;23.466;2023-05-22T11:55:37;95155.28;;;13.90;100.00
10097;BME280;5087;42.662;23.466;2023-05-22T11:58:06;95102.34;;;13.41;100.00
10097;BME280;5087;42.662;23.466;2023-05-22T12:00:34;95130.41;;;13.54;100.00
10097;BME280;5087;42.662;23.466;2023-05-22T12:03:08;95187.09;;;13.98;100.00
10097;BME280;5087;42.662;23.466;2023-05-22T12:06:10;95176.75;;;14.04;100.00
10097;BME280;5087;42.662;23.466;2023-05-22T12:08:40;95088.38;;;13.68;100.00
10097;BME280;5087;42.662;23.466;2023-05-22T12:11:10;95158.53;;;14.20;100.00
10097;BME280;5087;42.662;23.466;2023-05-22T12:13:38;95173.44;;;14.51;100.00
10097;BME280;5087;42.662;23.466;2023-05-22T12:16:17;95168.63;;;14.73;100.00
10097;BME280;5087;42.662;23.466;2023-05-22T12:18:46;95155.53;;;14.95;100.00
10097;BME280;5087;42.662;23.466;2023-05-22T12:21:14;95158.16;;;14.91;100.00
10097;BME280;5087;42.662;23.466;2023-05-22T12:23:50;95124.84;;;15.01;100.00
10097;BME280;5087;42.662;23.466;2023-05-22T12:26:18;95140.97;;;15.23;100.00
10097;BME280;5087;42.662;23.466;2023-05-22T12:28:46;95118.16;;;15.47;100.00
10097;BME280;5087;42.662;23.466;2023-05-22T12:31:21;95080.59;;;15.63;100.00
10097;BME280;5087;42.662;23.466;2023-05-22T12:33:52;95113.22;;;15.88;100.00
10097;BME280;5087;42.662;23.466;2023-05-22T12:36:21;95124.31;;;16.11;100.00
10097;BME280;5087;42.662;23.466;2023-05-22T12:38:56;95144.06;;;16.60;100.00
10097;BME280;5087;42.662;23.466;2023-05-22T12:41:26;95145.50;;;16.93;100.00
10097;BME280;5087;42.662;23.466;2023-05-22T12:44:05;95109.63;;;17.02;100.00
10097;BME280;5087;42.662;23.466;2023-05-22T12:46:33;95137.97;;;17.09;100.00
10097;BME280;5087;42.662;23.466;2023-05-22T12:49:03;95117.22;;;16.69;100.00
10097;BME280;5087;42.662;23.466;2023-05-22T12:51:31;95124.50;;;16.03;100.00
10097;BME280;5087;42.662;23.466;2023-05-22T12:54:01;95135.16;;;16.43;100.00
10097;BME280;5087;42.662;23.466;2023-05-22T12:56:32;95138.22;;;17.24;100.00
10097;BME280;5087;42.662;23.466;2023-05-22T12:59:07;95114.75;;;17.77;100.00
10097;BME280;5087;42.662;23.466;2023-05-22T13:01:34;95133.63;;;18.35;100.00
10097;BME280;5087;42.662;23.466;2023-05-22T13:04:05;95095.59;;;18.72;100.00
10097;BME280;5087;42.662;23.466;2023-05-22T13:06:34;95092.06;;;18.75;100.00
10097;BME280;5087;42.662;23.466;2023-05-22T13:09:03;95101.13;;;19.61;100.00
10097;BME280;5087;42.662;23.466;2023-05-22T13:11:30;95072.59;;;19.84;100.00
10097;BME280;5087;42.662;23.466;2023-05-22T13:13:57;95092.19;;;20.46;100.00